Time;durP1;ratioP1;P1;durP2;ratioP2;P2;SDS_P1;SDS_P2;PMS_P1;PMS_P2;Temp;Humidity;BMP_temperature;BMP_pressure;BME280_temperature;BME280_humidity;BME280_pressure;Samples;Min_cycle;Max_cycle;Signal;HPM_P1;HPM_P2
2022/06/16 00:00:32;;;;;;;;;;;;;;;15.23;100.00;99496.72;5053078;28;19924;-81
2022/06/16 00:02:59;;;;;;;;;;;;;;;15.28;100.00;99487.72;5053035;28;19925;-81
2022/06/16 00:05:30;;;;;;;;;;;;;;;15.44;100.00;99499.75;5051986;28;20293;-81
2022/06/16 00:07:58;;;;;;;;;;;;;;;15.09;100.00;99492.25;5036341;28;19925;-81
2022/06/16 00:10:26;;;;;;;;;;;;;;;15.09;100.00;99492.25;5052658;28;20402;-81
2022/06/16 00:12:53;;;;;;;;;;;;;;;15.32;100.00;99494.84;5051338;28;20034;-81
2022/06/16 00:15:22;;;;;;;;;;;;;;;14.95;100.00;99492.63;5052754;28;19928;-81
2022/06/16 00:17:50;;;;;;;;;;;;;;;13.83;100.00;99496.19;5036225;28;19931;-81
2022/06/16 00:20:17;;;;;;;;;;;;;;;14.56;100.00;99504.13;5035792;28;19925;-80
2022/06/16 00:22:45;;;;;;;;;;;;;;;14.85;100.00;99502.16;5052454;28;19924;-81
2022/06/16 00:25:13;;;;;;;;;;;;;;;14.98;100.00;99503.00;5070004;28;19927;-81
2022/06/16 00:27:41;;;;;;;;;;;;;;;14.73;100.00;99502.88;5096796;28;19984;-81
2022/06/16 00:30:09;;;;;;;;;;;;;;;14.79;100.00;99512.38;5097020;28;20314;-82
2022/06/16 00:32:38;;;;;;;;;;;;;;;15.01;100.00;99512.59;5081154;28;20255;-81
2022/06/16 00:35:06;;;;;;;;;;;;;;;15.04;100.00;99506.84;5114754;28;19927;-81
2022/06/16 00:37:35;;;;;;;;;;;;;;;15.16;100.00;99508.94;5080518;28;19924;-81
2022/06/16 00:40:03;;;;;;;;;;;;;;;14.99;100.00;99504.59;5096978;28;19931;-83
2022/06/16 00:42:30;;;;;;;;;;;;;;;14.82;100.00;99508.66;5097350;28;19923;-83
2022/06/16 00:44:58;;;;;;;;;;;;;;;14.56;100.00;99500.50;5096965;28;20402;-83
2022/06/16 00:47:27;;;;;;;;;;;;;;;14.44;100.00;99502.81;5079880;28;19930;-83
2022/06/16 00:49:57;;;;;;;;;;;;;;;14.17;100.00;99501.44;5079479;28;19931;-82
2022/06/16 00:52:27;;;;;;;;;;;;;;;13.68;100.00;99506.13;5079800;28;20022;-83
2022/06/16 00:54:58;;;;;;;;;;;;;;;13.32;100.00;99504.50;5080008;28;20390;-83
2022/06/16 00:57:30;;;;;;;;;;;;;;;13.23;100.00;99507.09;5096946;28;19931;-82
2022/06/16 00:59:58;;;;;;;;;;;;;;;13.12;100.00;99510.09;5096579;28;19931;-83
2022/06/16 01:02:28;;;;;;;;;;;;;;;13.36;100.00;99511.63;5096297;28;19930;-83
2022/06/16 01:04:56;;;;;;;;;;;;;;;13.81;100.00;99504.25;5114280;28;19931;-83
2022/06/16 01:07:29;;;;;;;;;;;;;;;13.81;100.00;99503.47;5096434;28;19931;-83
2022/06/16 01:09:57;;;;;;;;;;;;;;;13.95;100.00;99500.34;5079538;28;19924;-83
2022/06/16 01:15:38;;;;;;;;;;;;;;;13.71;100.00;99510.09;5096987;28;19928;-83
2022/06/16 01:18:21;;;;;;;;;;;;;;;13.55;100.00;99508.03;5096148;28;19924;-83
2022/06/16 01:20:51;;;;;;;;;;;;;;;13.27;100.00;99513.44;5075824;28;20280;-83
2022/06/16 01:23:22;;;;;;;;;;;;;;;13.57;100.00;99510.41;5076204;28;19925;-82
2022/06/16 01:26:02;;;;;;;;;;;;;;;13.74;100.00;99514.84;5076428;28;20002;-82
2022/06/16 01:28:31;;;;;;;;;;;;;;;13.87;100.00;99519.34;5076083;28;20035;-82
2022/06/16 01:31:02;;;;;;;;;;;;;;;13.83;100.00;99509.41;5059477;28;20368;-82
2022/06/16 01:33:53;;;;;;;;;;;;;;;13.62;100.00;99513.50;5075257;28;19930;-82
2022/06/16 01:36:25;;;;;;;;;;;;;;;13.27;100.00;99508.59;5084469;28;20016;-82
2022/06/16 01:38:54;;;;;;;;;;;;;;;13.26;100.00;99517.44;5076217;28;20470;-82
2022/06/16 01:41:25;;;;;;;;;;;;;;;13.50;100.00;99514.16;5093051;28;19924;-82
2022/06/16 01:44:01;;;;;;;;;;;;;;;13.26;100.00;99528.66;5076037;28;19924;-81
2022/06/16 01:46:31;;;;;;;;;;;;;;;13.75;100.00;99533.28;5059441;28;19924;-81
2022/06/16 01:49:21;;;;;;;;;;;;;;;13.61;100.00;99533.56;5059020;28;19924;-81
2022/06/16 01:51:58;;;;;;;;;;;;;;;12.95;100.00;99541.25;5076597;28;19931;-81
2022/06/16 01:56:52;;;;;;;;;;;;;;;13.61;100.00;99525.97;5091507;28;19913;-81
2022/06/16 01:59:24;;;;;;;;;;;;;;;14.01;100.00;99530.28;5090677;28;19931;-81
2022/06/16 02:01:57;;;;;;;;;;;;;;;14.13;100.00;99534.44;5107825;28;19931;-81
2022/06/16 02:04:31;;;;;;;;;;;;;;;13.55;100.00;99527.69;5090541;28;19924;-81
2022/06/16 02:07:01;;;;;;;;;;;;;;;12.62;100.00;99524.19;5090119;28;19931;-82
2022/06/16 02:09:32;;;;;;;;;;;;;;;12.86;100.00;99529.81;5090707;28;19932;-81
2022/06/16 02:12:03;;;;;;;;;;;;;;;13.24;100.00;99522.72;5124170;28;19925;-81
2022/06/16 02:14:35;;;;;;;;;;;;;;;13.33;100.00;99520.13;5124113;28;20540;-81
2022/06/16 02:17:14;;;;;;;;;;;;;;;13.34;100.00;99519.69;5072885;28;19928;-81
2022/06/16 02:19:43;;;;;;;;;;;;;;;13.51;100.00;99523.38;5073300;28;19931;-81
2022/06/16 02:22:11;;;;;;;;;;;;;;;13.74;100.00;99517.66;5107161;28;19931;-81
2022/06/16 02:24:38;;;;;;;;;;;;;;;13.32;100.00;99515.72;5090278;27;19925;-81
2022/06/16 02:27:06;;;;;;;;;;;;;;;13.20;100.00;99519.16;5089755;28;19925;-81
2022/06/16 02:29:37;;;;;;;;;;;;;;;13.47;100.00;99525.44;5072743;28;20337;-81
2022/06/16 02:32:24;;;;;;;;;;;;;;;13.71;100.00;99521.31;5089281;28;19925;-81
2022/06/16 02:35:12;;;;;;;;;;;;;;;13.40;100.00;99517.16;5072720;28;19924;-81
2022/06/16 02:37:45;;;;;;;;;;;;;;;13.45;100.00;99522.28;5100323;28;19931;-81
2022/06/16 02:40:22;;;;;;;;;;;;;;;13.02;100.00;99518.72;5106261;28;20265;-81
2022/06/16 02:43:09;;;;;;;;;;;;;;;12.88;100.00;99524.53;5123605;28;20007;-81
2022/06/16 02:45:42;;;;;;;;;;;;;;;11.92;100.00;99525.28;5073251;28;19931;-81
2022/06/16 02:48:13;;;;;;;;;;;;;;;12.07;100.00;99532.25;5089405;28;20035;-81
2022/06/16 02:50:56;;;;;;;;;;;;;;;12.73;100.00;99530.41;5089747;28;19974;-81
2022/06/16 02:56:17;;;;;;;;;;;;;;;12.67;100.00;99545.34;5089321;28;20023;-81
2022/06/16 02:58:47;;;;;;;;;;;;;;;12.70;100.00;99548.09;5123113;28;19928;-81
2022/06/16 03:01:15;;;;;;;;;;;;;;;12.43;100.00;99543.75;5088991;28;19928;-81
2022/06/16 03:03:59;;;;;;;;;;;;;;;13.00;100.00;99537.97;5090188;28;19928;-81
2022/06/16 03:06:27;;;;;;;;;;;;;;;12.88;100.00;99530.16;5101468;28;20435;-81
2022/06/16 03:08:56;;;;;;;;;;;;;;;12.90;100.00;99533.31;5075385;28;20372;-81
2022/06/16 03:11:26;;;;;;;;;;;;;;;13.23;100.00;99529.53;5109630;28;19974;-81
2022/06/16 03:13:54;;;;;;;;;;;;;;;13.43;100.00;99544.38;5077176;28;19924;-81
2022/06/16 03:16:27;;;;;;;;;;;;;;;13.14;100.00;99538.53;5075686;28;19924;-81
2022/06/16 03:18:56;;;;;;;;;;;;;;;13.07;100.00;99543.47;5059115;28;19929;-81
2022/06/16 03:21:27;;;;;;;;;;;;;;;12.64;100.00;99549.81;5059432;28;19925;-81
2022/06/16 03:23:55;;;;;;;;;;;;;;;12.35;100.00;99556.25;5108991;28;19928;-81
2022/06/16 03:26:23;;;;;;;;;;;;;;;11.84;100.00;99562.22;5092177;28;20378;-81
2022/06/16 03:29:06;;;;;;;;;;;;;;;12.56;100.00;99559.53;5042578;28;19931;-81
2022/06/16 03:31:53;;;;;;;;;;;;;;;12.29;100.00;99546.75;5075558;28;19924;-81
2022/06/16 03:34:26;;;;;;;;;;;;;;;11.90;100.00;99554.94;5076094;28;20007;-81
2022/06/16 03:36:57;;;;;;;;;;;;;;;12.56;100.00;99562.34;5058306;28;19931;-81
2022/06/16 03:39:34;;;;;;;;;;;;;;;12.43;100.00;99555.72;5093414;28;19925;-81
2022/06/16 03:42:02;;;;;;;;;;;;;;;12.70;100.00;99552.91;5075469;28;20019;-81
2022/06/16 03:44:30;;;;;;;;;;;;;;;12.92;100.00;99558.94;5076215;28;19970;-81
2022/06/16 03:46:57;;;;;;;;;;;;;;;12.69;100.00;99557.72;5075373;28;20380;-81
2022/06/16 03:49:33;;;;;;;;;;;;;;;12.92;100.00;99572.97;5091809;28;19974;-81
2022/06/16 03:52:53;;;;;;;;;;;;;;;12.86;100.00;99569.06;5112023;27;19916;-81
2022/06/16 03:55:22;;;;;;;;;;;;;;;12.55;100.00;99563.56;5111300;28;20271;-81
2022/06/16 03:57:51;;;;;;;;;;;;;;;12.82;100.00;99559.91;5110667;28;19924;-81
2022/06/16 04:00:21;;;;;;;;;;;;;;;12.90;100.00;99564.19;5077042;28;20394;-81
2022/06/16 04:03:59;;;;;;;;;;;;;;;12.80;100.00;99562.38;5111626;28;19932;-81
2022/06/16 04:05:39;;;;;;;;;;;;;;;13.03;100.00;99565.16;5076687;28;19931;-81
2022/06/16 04:08:12;;;;;;;;;;;;;;;12.54;100.00;99564.75;5110926;28;19924;-81
2022/06/16 04:10:40;;;;;;;;;;;;;;;11.90;100.00;99578.13;5093673;28;19924;-81
2022/06/16 04:13:07;;;;;;;;;;;;;;;11.64;100.00;99584.47;5110242;28;19924;-81
2022/06/16 04:15:35;;;;;;;;;;;;;;;11.95;100.00;99580.44;5076606;28;20410;-81
2022/06/16 04:18:05;;;;;;;;;;;;;;;11.34;100.00;99587.19;5110241;28;20018;-81
2022/06/16 04:20:36;;;;;;;;;;;;;;;11.53;100.00;99597.75;5093930;28;20502;-80
2022/06/16 04:23:16;;;;;;;;;;;;;;;11.95;100.00;99597.25;5093635;28;19935;-81
2022/06/16 04:25:45;;;;;;;;;;;;;;;11.41;100.00;99600.28;5076946;28;19966;-81
2022/06/16 04:28:19;;;;;;;;;;;;;;;11.12;100.00;99610.19;5093956;28;19931;-81
2022/06/16 04:30:49;;;;;;;;;;;;;;;10.78;100.00;99618.47;5093147;28;19931;-81
2022/06/16 04:33:20;;;;;;;;;;;;;;;10.45;100.00;99610.75;5076942;28;20294;-81
2022/06/16 04:35:49;;;;;;;;;;;;;;;10.88;100.00;99628.75;5093138;28;19924;-81
2022/06/16 04:38:22;;;;;;;;;;;;;;;11.73;100.00;99623.94;5110194;28;20026;-81
2022/06/16 04:40:50;;;;;;;;;;;;;;;11.93;100.00;99632.50;5111338;28;19923;-81
2022/06/16 04:43:18;;;;;;;;;;;;;;;12.06;100.00;99622.31;5109439;28;20020;-81
2022/06/16 04:45:52;;;;;;;;;;;;;;;12.06;100.00;99625.13;5092769;28;19931;-81
2022/06/16 04:48:25;;;;;;;;;;;;;;;12.37;100.00;99629.50;5110056;28;19970;-81
2022/06/16 04:50:52;;;;;;;;;;;;;;;12.73;100.00;99631.38;5092774;28;19931;-81
2022/06/16 04:53:24;;;;;;;;;;;;;;;12.72;100.00;99626.19;5094298;28;19924;-81
2022/06/16 04:56:08;;;;;;;;;;;;;;;13.07;100.00;99636.81;5092654;28;19928;-81
2022/06/16 04:58:46;;;;;;;;;;;;;;;12.59;100.00;99637.19;5109819;28;19924;-81
2022/06/16 05:01:35;;;;;;;;;;;;;;;12.96;100.00;99636.19;5076008;28;19928;-81
2022/06/16 05:04:21;;;;;;;;;;;;;;;13.30;100.00;99641.66;5078296;28;19924;-81
2022/06/16 05:06:58;;;;;;;;;;;;;;;13.52;100.00;99631.63;5081074;28;20014;-81
2022/06/16 05:09:36;;;;;;;;;;;;;;;13.60;100.00;99621.84;5078771;28;19924;-81
2022/06/16 05:12:33;;;;;;;;;;;;;;;14.12;100.00;99631.19;5017809;28;20039;-81
2022/06/16 05:15:13;;;;;;;;;;;;;;;14.28;100.00;99618.03;5035173;28;20499;-81
2022/06/16 05:18:09;;;;;;;;;;;;;;;14.69;100.00;99611.88;5017954;28;19929;-81
2022/06/16 05:21:12;;;;;;;;;;;;;;;14.81;100.00;99622.44;5035035;28;20019;-81
2022/06/16 05:24:09;;;;;;;;;;;;;;;14.20;100.00;99613.78;5014557;28;19925;-81
2022/06/16 05:27:09;;;;;;;;;;;;;;;14.66;100.00;99615.53;4956159;29;19926;-81
2022/06/16 05:29:47;;;;;;;;;;;;;;;14.61;100.00;99616.09;4940249;29;20385;-81
2022/06/16 05:32:17;;;;;;;;;;;;;;;14.92;100.00;99620.13;4940075;29;19934;-81
2022/06/16 05:35:05;;;;;;;;;;;;;;;14.61;100.00;99618.91;4955867;28;19931;-81
2022/06/16 05:37:55;;;;;;;;;;;;;;;15.07;100.00;99617.78;4924038;29;20024;-81
2022/06/16 05:40:29;;;;;;;;;;;;;;;15.38;100.00;99610.53;4925153;29;19926;-81
2022/06/16 05:43:16;;;;;;;;;;;;;;;15.67;100.00;99617.00;4911187;29;19933;-81
2022/06/16 05:46:04;;;;;;;;;;;;;;;16.05;100.00;99610.22;4940153;29;20018;-81
2022/06/16 05:48:34;;;;;;;;;;;;;;;16.33;100.00;99610.66;4946312;28;19961;-81
2022/06/16 05:51:08;;;;;;;;;;;;;;;16.14;100.00;99607.56;4975107;28;19930;-81
2022/06/16 05:54:01;;;;;;;;;;;;;;;16.15;100.00;99606.31;4975010;28;19926;-81
2022/06/16 05:56:32;;;;;;;;;;;;;;;16.53;100.00;99614.84;4975229;28;19930;-81
2022/06/16 05:58:59;;;;;;;;;;;;;;;16.69;100.00;99608.31;4958749;28;19930;-81
2022/06/16 06:01:29;;;;;;;;;;;;;;;16.42;100.00;99627.69;4978732;28;20419;-81
2022/06/16 06:04:05;;;;;;;;;;;;;;;15.96;100.00;99632.66;5094745;28;20385;-81
2022/06/16 06:06:35;;;;;;;;;;;;;;;15.86;100.00;99647.84;5096396;28;20371;-81
2022/06/16 06:17:24;;;;;;;;;;;;;;;16.85;100.00;99625.13;5094481;28;20011;-81
2022/06/16 06:19:53;;;;;;;;;;;;;;;16.90;100.00;99627.38;5095648;28;19924;-81
2022/06/16 06:22:24;;;;;;;;;;;;;;;16.99;100.00;99621.84;5078097;28;19963;-81
2022/06/16 06:25:18;;;;;;;;;;;;;;;17.01;100.00;99608.06;5070196;28;19932;-81
2022/06/16 06:27:46;;;;;;;;;;;;;;;17.09;100.00;99598.09;5074136;28;20022;-81
2022/06/16 06:30:16;;;;;;;;;;;;;;;17.25;100.00;99600.78;5073897;28;20335;-81
2022/06/16 06:32:43;;;;;;;;;;;;;;;17.03;100.00;99600.72;5074040;28;20407;-81
2022/06/16 06:35:11;;;;;;;;;;;;;;;16.60;100.00;99599.75;5075050;28;20019;-81
2022/06/16 06:37:41;;;;;;;;;;;;;;;16.98;100.00;99600.50;5075000;28;19931;-81
2022/06/16 06:40:14;;;;;;;;;;;;;;;17.44;100.00;99606.19;5075488;28;19924;-81
2022/06/16 06:42:42;;;;;;;;;;;;;;;17.90;100.00;99608.13;5073821;28;19998;-81
2022/06/16 06:45:11;;;;;;;;;;;;;;;18.20;100.00;99608.66;5073742;28;19925;-77
2022/06/16 06:47:38;;;;;;;;;;;;;;;18.46;100.00;99610.09;5074805;28;20390;-83
2022/06/16 06:50:06;;;;;;;;;;;;;;;18.71;100.00;99612.72;5074877;28;20221;-81
2022/06/16 06:52:34;;;;;;;;;;;;;;;18.88;100.00;99619.72;5073044;28;19924;-81
2022/06/16 06:55:02;;;;;;;;;;;;;;;18.51;100.00;99613.09;5057024;28;19928;-79
2022/06/16 06:57:30;;;;;;;;;;;;;;;18.91;100.00;99624.44;5068597;28;20284;-79
2022/06/16 06:59:57;;;;;;;;;;;;;;;20.04;100.00;99626.06;5069368;28;19924;-79
2022/06/16 07:02:27;;;;;;;;;;;;;;;20.87;100.00;99626.94;5069363;28;19932;-79
2022/06/16 07:04:56;;;;;;;;;;;;;;;22.25;100.00;99610.03;5070072;28;19994;-79
2022/06/16 07:07:24;;;;;;;;;;;;;;;23.61;100.00;99603.44;5068524;28;20015;-79
2022/06/16 07:09:52;;;;;;;;;;;;;;;25.04;100.00;99592.69;5070760;28;19924;-79
2022/06/16 07:12:20;;;;;;;;;;;;;;;26.13;100.00;99571.63;5070620;28;19970;-79
2022/06/16 07:14:48;;;;;;;;;;;;;;;27.32;100.00;99555.47;5073114;28;19930;-79
2022/06/16 07:17:17;;;;;;;;;;;;;;;27.37;100.00;99560.41;5074181;28;20419;-79
2022/06/16 07:19:45;;;;;;;;;;;;;;;28.34;100.00;99564.63;5072825;28;19924;-79
2022/06/16 07:22:12;;;;;;;;;;;;;;;28.99;100.00;99557.53;5073952;28;19924;-77
2022/06/16 07:24:40;;;;;;;;;;;;;;;29.60;100.00;99549.03;5069558;28;19956;-80
2022/06/16 07:27:09;;;;;;;;;;;;;;;29.99;100.00;99539.13;5069764;28;19925;-80
2022/06/16 07:29:36;;;;;;;;;;;;;;;30.74;100.00;99538.50;5070574;28;19925;-78
2022/06/16 07:32:09;;;;;;;;;;;;;;;31.20;100.00;99537.13;5069939;28;19924;-78
2022/06/16 07:34:37;;;;;;;;;;;;;;;30.93;100.00;99529.78;5070325;28;20001;-78
2022/06/16 07:37:04;;;;;;;;;;;;;;;30.71;100.00;99533.78;5069500;28;19925;-78
2022/06/16 07:39:32;;;;;;;;;;;;;;;31.02;100.00;99520.69;5069013;28;19964;-80
2022/06/16 07:42:00;;;;;;;;;;;;;;;31.53;100.00;99530.69;5070209;28;19924;-82
2022/06/16 07:44:28;;;;;;;;;;;;;;;31.40;100.00;99522.03;5070695;28;19932;-80
2022/06/16 07:46:55;;;;;;;;;;;;;;;29.48;100.00;99526.66;5070282;28;20284;-79
2022/06/16 07:49:25;;;;;;;;;;;;;;;29.81;100.00;99537.78;5070606;28;19924;-79
2022/06/16 07:51:54;;;;;;;;;;;;;;;28.76;100.00;99538.97;5069831;28;19931;-82
2022/06/16 07:54:23;;;;;;;;;;;;;;;29.00;100.00;99541.84;5069863;28;19931;-84
2022/06/16 07:57:11;;;;;;;;;;;;;;;30.33;100.00;99534.44;5042088;28;19931;-81
2022/06/16 07:59:42;;;;;;;;;;;;;;;30.68;100.00;99532.00;5071519;28;19932;-82
2022/06/16 08:02:11;;;;;;;;;;;;;;;31.73;100.00;99535.00;5039613;28;19924;-79
2022/06/16 08:04:38;;;;;;;;;;;;;;;32.07;100.00;99538.72;5073503;28;19925;-79
2022/06/16 08:07:06;;;;;;;;;;;;;;;32.56;100.00;99554.94;5072073;28;19952;-79
2022/06/16 08:09:35;;;;;;;;;;;;;;;32.10;100.00;99558.63;5073155;28;19987;-79
2022/06/16 08:12:05;;;;;;;;;;;;;;;32.55;100.00;99550.47;5072898;28;19929;-79
2022/06/16 08:14:36;;;;;;;;;;;;;;;32.63;100.00;99533.97;5060843;28;19924;-79
2022/06/16 08:17:06;;;;;;;;;;;;;;;32.63;100.00;99542.63;5069011;28;19928;-82
2022/06/16 08:19:34;;;;;;;;;;;;;;;30.33;100.00;99534.44;5084449;28;19931;-82
2022/06/16 08:22:01;;;;;;;;;;;;;;;28.94;100.00;99538.25;5087733;28;19946;-82
2022/06/16 08:24:29;;;;;;;;;;;;;;;30.02;100.00;99540.91;5090029;28;19928;-82
2022/06/16 08:27:00;;;;;;;;;;;;;;;30.27;100.00;99536.63;5063782;28;19924;-79
2022/06/16 08:29:28;;;;;;;;;;;;;;;30.83;100.00;99519.97;5078598;28;19928;-82
2022/06/16 08:31:56;;;;;;;;;;;;;;;31.26;100.00;99524.13;5072093;28;19924;-81
2022/06/16 08:34:24;;;;;;;;;;;;;;;31.74;100.00;99530.78;5073122;28;19924;-82
2022/06/16 08:36:54;;;;;;;;;;;;;;;32.31;100.00;99518.19;5055382;28;20402;-82
2022/06/16 08:39:22;;;;;;;;;;;;;;;32.37;100.00;99516.72;5058444;28;19978;-82
2022/06/16 08:41:53;;;;;;;;;;;;;;;31.51;99.66;99507.38;5075663;28;19924;-82
2022/06/16 08:44:42;;;;;;;;;;;;;;;31.30;100.00;99518.03;5090350;28;19912;-82
2022/06/16 08:47:16;;;;;;;;;;;;;;;29.42;100.00;99506.59;5087909;28;20376;-82
2022/06/16 08:50:03;;;;;;;;;;;;;;;30.95;100.00;99486.69;5069993;28;19924;-82
2022/06/16 08:52:36;;;;;;;;;;;;;;;31.80;100.00;99485.97;5071459;28;20023;-82
2022/06/16 08:55:22;;;;;;;;;;;;;;;30.95;100.00;99489.59;5087101;28;19924;-83
2022/06/16 08:57:51;;;;;;;;;;;;;;;29.85;100.00;99477.00;5068886;28;19928;-83
2022/06/16 09:00:21;;;;;;;;;;;;;;;29.75;100.00;99496.75;5053014;28;19949;-83
2022/06/16 09:02:48;;;;;;;;;;;;;;;29.47;100.00;99505.75;5070705;28;19964;-83
2022/06/16 09:05:31;;;;;;;;;;;;;;;30.13;100.00;99506.94;5070004;28;19948;-83
2022/06/16 09:07:59;;;;;;;;;;;;;;;29.21;100.00;99504.78;5069976;28;20007;-83
2022/06/16 09:10:38;;;;;;;;;;;;;;;27.03;100.00;99515.88;5070289;28;19967;-83
2022/06/16 09:13:31;;;;;;;;;;;;;;;27.12;100.00;99512.72;5071037;28;20375;-83
2022/06/16 09:16:08;;;;;;;;;;;;;;;27.23;100.00;99522.09;5077412;28;19932;-82
2022/06/16 09:18:38;;;;;;;;;;;;;;;27.68;100.00;99522.69;5052865;28;19924;-82
2022/06/16 09:21:12;;;;;;;;;;;;;;;28.39;100.00;99532.97;5070831;28;20019;-82
2022/06/16 09:23:42;;;;;;;;;;;;;;;28.57;100.00;99538.06;5070805;28;20386;-83
2022/06/16 09:26:16;;;;;;;;;;;;;;;26.89;100.00;99548.47;5069642;28;20387;-83
2022/06/16 09:28:49;;;;;;;;;;;;;;;27.62;100.00;99547.78;5070713;28;19976;-83
2022/06/16 09:31:21;;;;;;;;;;;;;;;27.79;100.00;99548.47;5070268;28;20372;-83
2022/06/16 09:33:51;;;;;;;;;;;;;;;27.43;100.00;99543.94;5070738;28;19924;-83
2022/06/16 09:36:22;;;;;;;;;;;;;;;25.98;100.00;99545.31;5070337;28;20308;-83
2022/06/16 09:38:50;;;;;;;;;;;;;;;25.80;100.00;99560.06;5069130;28;20402;-83
2022/06/16 09:44:35;;;;;;;;;;;;;;;26.39;100.00;99539.88;5068656;28;19968;-83
2022/06/16 09:47:06;;;;;;;;;;;;;;;26.62;100.00;99537.78;5070173;28;19971;-80
2022/06/16 09:49:37;;;;;;;;;;;;;;;26.42;100.00;99542.50;5052634;28;20376;-83
2022/06/16 09:52:24;;;;;;;;;;;;;;;26.36;100.00;99553.19;5069064;28;19924;-83
2022/06/16 09:54:55;;;;;;;;;;;;;;;26.18;100.00;99555.75;5061917;28;19979;-82
2022/06/16 09:57:26;;;;;;;;;;;;;;;25.86;100.00;99566.59;5072524;28;19925;-82
2022/06/16 09:59:58;;;;;;;;;;;;;;;25.83;100.00;99559.03;5055661;28;19931;-82
2022/06/16 10:02:28;;;;;;;;;;;;;;;25.80;100.00;99557.19;5039244;28;19987;-82
2022/06/16 10:04:56;;;;;;;;;;;;;;;25.90;100.00;99558.53;5056854;28;19925;-82
2022/06/16 10:07:24;;;;;;;;;;;;;;;26.08;100.00;99563.78;5039148;28;19947;-81
2022/06/16 10:09:52;;;;;;;;;;;;;;;25.76;100.00;99556.69;5056750;28;19929;-82
2022/06/16 10:12:26;;;;;;;;;;;;;;;26.18;100.00;99556.53;5055367;28;19925;-81
2022/06/16 10:15:00;;;;;;;;;;;;;;;26.25;100.00;99567.47;5056238;28;20348;-81
2022/06/16 10:17:28;;;;;;;;;;;;;;;26.20;100.00;99562.50;5055078;28;19932;-82
2022/06/16 10:19:57;;;;;;;;;;;;;;;26.10;100.00;99554.69;5056663;28;19968;-82
2022/06/16 10:22:26;;;;;;;;;;;;;;;25.91;100.00;99551.53;5055669;28;19974;-82
2022/06/16 10:24:55;;;;;;;;;;;;;;;25.84;100.00;99554.88;5071985;28;19925;-81
2022/06/16 10:27:26;;;;;;;;;;;;;;;26.08;100.00;99552.34;5071894;28;19925;-82
2022/06/16 10:29:55;;;;;;;;;;;;;;;26.30;100.00;99551.59;5054693;28;20380;-82
2022/06/16 10:32:55;;;;;;;;;;;;;;;26.26;100.00;99545.34;5056503;28;19925;-82
2022/06/16 10:35:22;;;;;;;;;;;;;;;25.89;100.00;99559.03;5054110;28;19947;-82
2022/06/16 10:37:52;;;;;;;;;;;;;;;26.26;100.00;99546.13;5037267;28;19929;-82
2022/06/16 10:40:25;;;;;;;;;;;;;;;26.01;100.00;99538.53;5021207;28;19924;-82
2022/06/16 10:42:55;;;;;;;;;;;;;;;26.59;100.00;99516.72;5053536;28;19925;-82
2022/06/16 10:45:27;;;;;;;;;;;;;;;26.45;100.00;99524.28;5037039;28;20024;-82
2022/06/16 10:48:00;;;;;;;;;;;;;;;26.39;100.00;99529.22;5053794;28;19925;-82
2022/06/16 10:50:38;;;;;;;;;;;;;;;25.97;100.00;99535.13;5037018;28;19925;-81
2022/06/16 10:53:06;;;;;;;;;;;;;;;25.22;100.00;99552.22;5037102;28;20361;-81
2022/06/16 10:55:42;;;;;;;;;;;;;;;25.17;100.00;99546.50;5020385;28;19924;-80
2022/06/16 10:58:23;;;;;;;;;;;;;;;25.04;100.00;99549.03;5053340;28;19955;-81
2022/06/16 11:01:00;;;;;;;;;;;;;;;24.97;100.00;99564.56;5053491;28;19925;-81
2022/06/16 11:03:32;;;;;;;;;;;;;;;24.74;100.00;99563.63;5036728;28;19929;-81
2022/06/16 11:06:00;;;;;;;;;;;;;;;24.47;100.00;99586.22;5052551;28;19951;-81
2022/06/16 11:08:39;;;;;;;;;;;;;;;24.81;100.00;99576.66;5037670;28;19932;-81
2022/06/16 11:11:16;;;;;;;;;;;;;;;25.46;100.00;99581.25;5047328;28;20023;-81
2022/06/16 11:13:53;;;;;;;;;;;;;;;25.67;100.00;99576.16;5055025;28;19932;-81
2022/06/16 11:16:29;;;;;;;;;;;;;;;25.25;100.00;99594.09;5055384;28;19925;-81
2022/06/16 11:18:58;;;;;;;;;;;;;;;25.26;100.00;99601.41;5053929;28;19925;-81
2022/06/16 11:21:28;;;;;;;;;;;;;;;25.63;100.00;99598.50;5070758;28;19925;-81
2022/06/16 11:23:58;;;;;;;;;;;;;;;25.53;100.00;99606.53;5055138;28;19971;-81
2022/06/16 11:26:30;;;;;;;;;;;;;;;25.77;100.00;99615.47;5054018;28;19925;-81
2022/06/16 11:29:18;;;;;;;;;;;;;;;26.17;100.00;99615.09;5053685;28;20383;-81
2022/06/16 11:31:48;;;;;;;;;;;;;;;25.68;100.00;99612.84;5055091;28;19931;-81
2022/06/16 11:34:23;;;;;;;;;;;;;;;25.58;100.00;99605.75;5055351;28;20383;-81
2022/06/16 11:37:00;;;;;;;;;;;;;;;26.21;100.00;99612.00;5053575;28;20031;-82
2022/06/16 11:39:53;;;;;;;;;;;;;;;25.70;100.00;99601.66;5053785;28;19928;-81
2022/06/16 11:42:40;;;;;;;;;;;;;;;25.30;100.00;99616.25;5054476;28;19924;-82
2022/06/16 11:45:16;;;;;;;;;;;;;;;25.39;100.00;99621.78;5057139;28;19924;-81
2022/06/16 11:48:00;;;;;;;;;;;;;;;25.75;100.00;99626.66;5074734;28;19924;-81
2022/06/16 11:50:33;;;;;;;;;;;;;;;25.92;100.00;99624.66;5073442;28;20027;-81
2022/06/16 11:53:20;;;;;;;;;;;;;;;25.53;100.00;99632.28;5056961;28;20304;-81
2022/06/16 11:55:55;;;;;;;;;;;;;;;25.14;100.00;99616.94;5074752;28;19925;-81
2022/06/16 11:58:23;;;;;;;;;;;;;;;24.83;100.00;99628.38;5056382;28;19924;-81
2022/06/16 12:00:53;;;;;;;;;;;;;;;24.19;100.00;99628.78;5056827;28;19928;-81
2022/06/16 12:03:34;;;;;;;;;;;;;;;23.94;100.00;99634.44;5073300;28;19954;-81
2022/06/16 12:06:17;;;;;;;;;;;;;;;24.09;100.00;99626.59;5074583;28;19935;-81
2022/06/16 12:08:58;;;;;;;;;;;;;;;23.78;100.00;99637.88;5073335;28;19970;-81
2022/06/16 12:11:31;;;;;;;;;;;;;;;24.18;100.00;99644.34;5072593;28;19924;-81
2022/06/16 12:14:22;;;;;;;;;;;;;;;24.87;100.00;99634.63;5073582;28;19989;-81
2022/06/16 12:16:56;;;;;;;;;;;;;;;25.45;100.00;99631.19;5056532;28;19924;-81
2022/06/16 12:19:42;;;;;;;;;;;;;;;25.34;100.00;99630.34;5089555;28;19924;-81
2022/06/16 12:22:13;;;;;;;;;;;;;;;25.76;100.00;99616.78;5073816;28;19934;-81
2022/06/16 12:24:46;;;;;;;;;;;;;;;25.56;100.00;99631.25;5074188;28;20394;-81
2022/06/16 12:27:19;;;;;;;;;;;;;;;25.05;100.00;99637.16;5073695;28;19924;-81
2022/06/16 12:29:50;;;;;;;;;;;;;;;25.47;100.00;99628.59;5073809;28;19963;-81
2022/06/16 12:32:23;;;;;;;;;;;;;;;25.42;100.00;99629.34;5055975;28;19964;-81
2022/06/16 12:34:54;;;;;;;;;;;;;;;25.90;100.00;99615.78;5056040;28;19925;-81
2022/06/16 12:37:24;;;;;;;;;;;;;;;25.91;100.00;99605.91;5073100;28;19925;-81
2022/06/16 12:39:57;;;;;;;;;;;;;;;25.91;100.00;99605.13;5073025;28;19935;-81
2022/06/16 12:42:27;;;;;;;;;;;;;;;25.93;100.00;99597.56;5073666;28;20409;-81
2022/06/16 12:45:15;;;;;;;;;;;;;;;25.67;100.00;99591.25;5073654;28;19931;-79
2022/06/16 12:47:50;;;;;;;;;;;;;;;25.59;100.00;99590.16;5074318;28;19924;-82
2022/06/16 12:50:24;;;;;;;;;;;;;;;25.18;100.00;99594.59;5073952;28;20360;-80
2022/06/16 12:52:52;;;;;;;;;;;;;;;25.23;100.00;99579.56;5073840;28;19924;-81
2022/06/16 12:55:22;;;;;;;;;;;;;;;25.42;100.00;99585.66;5055752;28;20280;-79
2022/06/16 12:57:57;;;;;;;;;;;;;;;25.25;100.00;99585.53;5073669;28;19925;-79
2022/06/16 13:00:28;;;;;;;;;;;;;;;25.28;100.00;99580.88;5055687;28;19924;-79
2022/06/16 13:03:16;;;;;;;;;;;;;;;25.23;100.00;99573.84;5055670;28;19925;-79
2022/06/16 13:05:44;;;;;;;;;;;;;;;25.27;100.00;99551.50;5032965;28;20364;-79
2022/06/16 13:08:13;;;;;;;;;;;;;;;25.50;100.00;99550.34;5073593;28;20052;-79
2022/06/16 13:10:43;;;;;;;;;;;;;;;24.58;100.00;99554.91;5055613;28;19931;-79
2022/06/16 13:13:20;;;;;;;;;;;;;;;24.83;100.00;99548.34;5073698;28;19928;-79
2022/06/16 13:15:52;;;;;;;;;;;;;;;24.70;100.00;99548.03;5073623;28;20009;-79
2022/06/16 13:18:22;;;;;;;;;;;;;;;24.85;100.00;99537.22;5073380;28;20029;-79
2022/06/16 13:20:54;;;;;;;;;;;;;;;25.39;100.00;99546.63;5073556;28;19971;-79
2022/06/16 13:23:39;;;;;;;;;;;;;;;25.50;100.00;99532.38;5073128;28;19931;-79
2022/06/16 13:26:26;;;;;;;;;;;;;;;25.30;100.00;99533.31;5073518;28;19924;-79